sensor_id;sensor_type;location;lat;lon;timestamp;pressure;altitude;pressure_sealevel;temperature;humidity
55755;BME280;41674;52.290;-1.474;2023-02-03T00:02:21;102073.68;;;7.73;93.58
55755;BME280;41674;52.290;-1.474;2023-02-03T00:04:51;102082.76;;;7.65;93.54
55755;BME280;41674;52.290;-1.474;2023-02-03T00:07:20;102080.49;;;7.66;95.30
55755;BME280;41674;52.290;-1.474;2023-02-03T00:09:50;102073.24;;;7.65;93.94
55755;BME280;41674;52.290;-1.474;2023-02-03T00:12:20;102071.74;;;7.62;93.78
55755;BME280;41674;52.290;-1.474;2023-02-03T00:14:49;102064.75;;;7.87;94.09
55755;BME280;41674;52.290;-1.474;2023-02-03T00:17:19;102067.78;;;7.63;95.24
55755;BME280;41674;52.290;-1.474;2023-02-03T00:19:49;102070.16;;;7.07;97.89
55755;BME280;41674;52.290;-1.474;2023-02-03T00:22:18;102076.81;;;7.55;97.51
55755;BME280;41674;52.290;-1.474;2023-02-03T00:24:48;102073.24;;;7.57;98.65
55755;BME280;41674;52.290;-1.474;2023-02-03T00:27:18;102067.41;;;7.70;98.65
55755;BME280;41674;52.290;-1.474;2023-02-03T00:29:47;102074.08;;;7.32;99.29
55755;BME280;41674;52.290;-1.474;2023-02-03T00:32:17;102069.88;;;7.49;98.13
55755;BME280;41674;52.290;-1.474;2023-02-03T00:34:46;102095.52;;;7.55;99.03
55755;BME280;41674;52.290;-1.474;2023-02-03T00:37:16;102088.17;;;7.50;97.67
55755;BME280;41674;52.290;-1.474;2023-02-03T00:39:46;102090.32;;;7.58;96.63
55755;BME280;41674;52.290;-1.474;2023-02-03T00:42:15;102087.51;;;8.10;95.34
55755;BME280;41674;52.290;-1.474;2023-02-03T00:44:45;102080.41;;;7.67;96.61
55755;BME280;41674;52.290;-1.474;2023-02-03T00:47:14;102077.60;;;7.22;97.18
55755;BME280;41674;52.290;-1.474;2023-02-03T00:49:44;102070.61;;;7.84;95.31
55755;BME280;41674;52.290;-1.474;2023-02-03T00:52:14;102068.69;;;8.15;92.75
55755;BME280;41674;52.290;-1.474;2023-02-03T00:54:43;102067.81;;;8.03;91.78
55755;BME280;41674;52.290;-1.474;2023-02-03T00:57:13;102072.79;;;7.80;92.99
55755;BME280;41674;52.290;-1.474;2023-02-03T00:59:42;102087.02;;;8.01;92.30
55755;BME280;41674;52.290;-1.474;2023-02-03T01:02:12;102082.86;;;8.04;91.61
55755;BME280;41674;52.290;-1.474;2023-02-03T01:04:42;102076.94;;;8.15;92.51
55755;BME280;41674;52.290;-1.474;2023-02-03T01:07:11;102078.73;;;7.89;94.03
55755;BME280;41674;52.290;-1.474;2023-02-03T01:09:41;102077.37;;;7.97;95.06
55755;BME280;41674;52.290;-1.474;2023-02-03T01:12:11;102074.10;;;7.17;97.15
55755;BME280;41674;52.290;-1.474;2023-02-03T01:14:40;102074.13;;;8.07;92.95
55755;BME280;41674;52.290;-1.474;2023-02-03T01:17:10;102076.93;;;7.60;94.27
55755;BME280;41674;52.290;-1.474;2023-02-03T01:19:39;102081.24;;;8.17;94.13
55755;BME280;41674;52.290;-1.474;2023-02-03T01:22:09;102075.29;;;7.79;96.57
55755;BME280;41674;52.290;-1.474;2023-02-03T01:24:39;102072.83;;;7.23;100.00
55755;BME280;41674;52.290;-1.474;2023-02-03T01:27:09;102073.05;;;7.50;99.52
55755;BME280;41674;52.290;-1.474;2023-02-03T01:29:38;102075.27;;;6.78;100.00
55755;BME280;41674;52.290;-1.474;2023-02-03T01:32:07;102068.54;;;6.65;100.00
55755;BME280;41674;52.290;-1.474;2023-02-03T01:34:37;102055.52;;;7.19;100.00
55755;BME280;41674;52.290;-1.474;2023-02-03T01:37:07;102061.56;;;6.75;100.00
55755;BME280;41674;52.290;-1.474;2023-02-03T01:39:36;102065.87;;;6.56;100.00
55755;BME280;41674;52.290;-1.474;2023-02-03T01:42:08;102064.47;;;7.18;100.00
55755;BME280;41674;52.290;-1.474;2023-02-03T01:44:41;102066.36;;;7.26;100.00
55755;BME280;41674;52.290;-1.474;2023-02-03T01:47:13;102074.02;;;7.12;100.00
55755;BME280;41674;52.290;-1.474;2023-02-03T01:49:36;102068.31;;;7.30;99.97
55755;BME280;41674;52.290;-1.474;2023-02-03T01:52:05;102070.00;;;7.31;100.00
55755;BME280;41674;52.290;-1.474;2023-02-03T01:54:38;102068.50;;;7.19;100.00
55755;BME280;41674;52.290;-1.474;2023-02-03T01:57:06;102069.93;;;7.00;100.00
55755;BME280;41674;52.290;-1.474;2023-02-03T01:59:34;102066.14;;;7.24;100.00
55755;BME280;41674;52.290;-1.474;2023-02-03T02:02:04;102066.16;;;7.18;100.00
55755;BME280;41674;52.290;-1.474;2023-02-03T02:04:38;102068.45;;;7.37;100.00
55755;BME280;41674;52.290;-1.474;2023-02-03T02:07:01;102075.02;;;6.61;100.00
55755;BME280;41674;52.290;-1.474;2023-02-03T02:09:31;102073.27;;;7.00;100.00
55755;BME280;41674;52.290;-1.474;2023-02-03T02:12:01;102066.70;;;7.28;99.37
55755;BME280;41674;52.290;-1.474;2023-02-03T02:14:30;102074.11;;;7.21;98.83
55755;BME280;41674;52.290;-1.474;2023-02-03T02:17:05;102075.17;;;6.87;99.30
55755;BME280;41674;52.290;-1.474;2023-02-03T02:22:05;102076.17;;;8.55;91.98
55755;BME280;41674;52.290;-1.474;2023-02-03T02:24:42;102082.45;;;7.69;94.99
55755;BME280;41674;52.290;-1.474;2023-02-03T02:27:04;102093.51;;;7.04;99.84
55755;BME280;41674;52.290;-1.474;2023-02-03T02:32:08;102098.84;;;7.20;99.81
55755;BME280;41674;52.290;-1.474;2023-02-03T02:34:37;102096.29;;;7.46;99.20
55755;BME280;41674;52.290;-1.474;2023-02-03T02:37:03;102097.67;;;7.05;100.00
55755;BME280;41674;52.290;-1.474;2023-02-03T02:39:36;102088.20;;;7.60;96.72
55755;BME280;41674;52.290;-1.474;2023-02-03T02:42:01;102091.54;;;7.17;100.00
55755;BME280;41674;52.290;-1.474;2023-02-03T02:44:30;102094.72;;;7.75;98.22
55755;BME280;41674;52.290;-1.474;2023-02-03T02:46:58;102097.01;;;7.74;99.74
55755;BME280;41674;52.290;-1.474;2023-02-03T02:49:31;102102.15;;;7.37;99.19
55755;BME280;41674;52.290;-1.474;2023-02-03T02:51:56;102103.69;;;7.64;99.48
55755;BME280;41674;52.290;-1.474;2023-02-03T02:54:26;102106.24;;;7.58;98.80
55755;BME280;41674;52.290;-1.474;2023-02-03T02:56:56;102101.33;;;7.69;97.06
55755;BME280;41674;52.290;-1.474;2023-02-03T02:59:24;102105.18;;;7.53;96.11
55755;BME280;41674;52.290;-1.474;2023-02-03T03:01:53;102110.02;;;8.13;94.48
55755;BME280;41674;52.290;-1.474;2023-02-03T03:04:25;102111.31;;;7.85;95.65
55755;BME280;41674;52.290;-1.474;2023-02-03T03:06:56;102124.93;;;6.67;100.00
55755;BME280;41674;52.290;-1.474;2023-02-03T03:09:25;102124.99;;;7.80;98.22
55755;BME280;41674;52.290;-1.474;2023-02-03T03:11:56;102125.72;;;7.64;96.04
55755;BME280;41674;52.290;-1.474;2023-02-03T03:14:22;102124.45;;;7.24;97.35
55755;BME280;41674;52.290;-1.474;2023-02-03T03:16:56;102118.12;;;7.50;96.34
55755;BME280;41674;52.290;-1.474;2023-02-03T03:19:24;102113.22;;;7.62;95.13
55755;BME280;41674;52.290;-1.474;2023-02-03T03:21:53;102110.49;;;7.20;96.30
55755;BME280;41674;52.290;-1.474;2023-02-03T03:24:23;102112.98;;;6.94;97.50
55755;BME280;41674;52.290;-1.474;2023-02-03T03:26:52;102112.00;;;8.02;93.39
55755;BME280;41674;52.290;-1.474;2023-02-03T03:29:23;102109.20;;;7.69;95.20
55755;BME280;41674;52.290;-1.474;2023-02-03T03:31:49;102108.87;;;7.49;94.85
55755;BME280;41674;52.290;-1.474;2023-02-03T03:34:19;102109.93;;;7.35;95.60
55755;BME280;41674;52.290;-1.474;2023-02-03T03:36:54;102105.33;;;7.97;94.35
55755;BME280;41674;52.290;-1.474;2023-02-03T03:39:23;102106.00;;;7.53;93.96
55755;BME280;41674;52.290;-1.474;2023-02-03T03:41:56;102109.11;;;7.40;95.50
55755;BME280;41674;52.290;-1.474;2023-02-03T03:44:18;102116.96;;;7.75;94.91
55755;BME280;41674;52.290;-1.474;2023-02-03T03:46:50;102119.46;;;7.32;97.04
55755;BME280;41674;52.290;-1.474;2023-02-03T03:49:18;102118.85;;;7.41;95.66
55755;BME280;41674;52.290;-1.474;2023-02-03T03:51:49;102116.53;;;7.80;95.14
55755;BME280;41674;52.290;-1.474;2023-02-03T03:54:18;102111.35;;;7.47;94.95
55755;BME280;41674;52.290;-1.474;2023-02-03T03:56:50;102106.27;;;7.89;93.98
55755;BME280;41674;52.290;-1.474;2023-02-03T03:59:17;102103.02;;;8.22;92.84
55755;BME280;41674;52.290;-1.474;2023-02-03T04:01:45;102110.73;;;8.03;92.39
55755;BME280;41674;52.290;-1.474;2023-02-03T04:04:15;102115.88;;;7.15;94.93
55755;BME280;41674;52.290;-1.474;2023-02-03T04:06:44;102116.45;;;7.34;96.54
55755;BME280;41674;52.290;-1.474;2023-02-03T04:09:13;102116.38;;;7.53;95.84
55755;BME280;41674;52.290;-1.474;2023-02-03T04:11:43;102122.64;;;7.67;95.30
55755;BME280;41674;52.290;-1.474;2023-02-03T04:14:13;102129.19;;;7.22;98.19
55755;BME280;41674;52.290;-1.474;2023-02-03T04:16:42;102139.07;;;7.84;96.57
55755;BME280;41674;52.290;-1.474;2023-02-03T04:19:12;102146.63;;;8.58;91.86
55755;BME280;41674;52.290;-1.474;2023-02-03T04:21:41;102155.30;;;7.84;93.75
55755;BME280;41674;52.290;-1.474;2023-02-03T04:24:11;102157.83;;;8.11;94.49
55755;BME280;41674;52.290;-1.474;2023-02-03T04:26:41;102162.31;;;8.10;93.82
55755;BME280;41674;52.290;-1.474;2023-02-03T04:29:10;102161.81;;;7.87;93.55
55755;BME280;41674;52.290;-1.474;2023-02-03T04:31:40;102166.19;;;8.00;92.98
55755;BME280;41674;52.290;-1.474;2023-02-03T04:34:10;102173.75;;;7.71;95.51
55755;BME280;41674;52.290;-1.474;2023-02-03T04:36:39;102172.88;;;7.90;95.02
55755;BME280;41674;52.290;-1.474;2023-02-03T04:39:09;102167.77;;;7.34;96.80
55755;BME280;41674;52.290;-1.474;2023-02-03T04:41:38;102158.10;;;7.59;96.28
55755;BME280;41674;52.290;-1.474;2023-02-03T04:44:08;102158.97;;;7.72;95.81
55755;BME280;41674;52.290;-1.474;2023-02-03T04:46:38;102172.23;;;7.56;96.72
55755;BME280;41674;52.290;-1.474;2023-02-03T04:49:07;102171.92;;;7.82;95.79
55755;BME280;41674;52.290;-1.474;2023-02-03T04:51:37;102178.86;;;7.42;98.12
55755;BME280;41674;52.290;-1.474;2023-02-03T04:54:07;102183.01;;;7.87;96.90
55755;BME280;41674;52.290;-1.474;2023-02-03T04:56:36;102191.64;;;7.57;98.88
55755;BME280;41674;52.290;-1.474;2023-02-03T04:59:06;102194.84;;;7.53;98.88
55755;BME280;41674;52.290;-1.474;2023-02-03T05:01:36;102190.11;;;7.46;97.63
55755;BME280;41674;52.290;-1.474;2023-02-03T05:04:05;102194.53;;;7.61;98.46
55755;BME280;41674;52.290;-1.474;2023-02-03T05:06:35;102198.58;;;7.84;96.73
55755;BME280;41674;52.290;-1.474;2023-02-03T05:09:04;102191.91;;;7.73;97.46
55755;BME280;41674;52.290;-1.474;2023-02-03T05:11:34;102192.76;;;7.51;99.23
55755;BME280;41674;52.290;-1.474;2023-02-03T05:14:04;102190.28;;;7.64;96.35
55755;BME280;41674;52.290;-1.474;2023-02-03T05:16:33;102189.74;;;7.79;97.32
55755;BME280;41674;52.290;-1.474;2023-02-03T05:19:03;102184.49;;;7.52;98.60
55755;BME280;41674;52.290;-1.474;2023-02-03T05:21:32;102188.39;;;7.30;98.18
55755;BME280;41674;52.290;-1.474;2023-02-03T05:24:02;102187.00;;;7.09;100.00
55755;BME280;41674;52.290;-1.474;2023-02-03T05:26:32;102181.24;;;7.35;100.00
55755;BME280;41674;52.290;-1.474;2023-02-03T05:29:02;102183.82;;;7.17;100.00
55755;BME280;41674;52.290;-1.474;2023-02-03T05:31:31;102184.33;;;6.76;100.00
55755;BME280;41674;52.290;-1.474;2023-02-03T05:34:00;102185.48;;;7.47;100.00
55755;BME280;41674;52.290;-1.474;2023-02-03T05:36:30;102191.82;;;7.54;100.00
55755;BME280;41674;52.290;-1.474;2023-02-03T05:38:59;102202.54;;;7.34;100.00
55755;BME280;41674;52.290;-1.474;2023-02-03T05:41:29;102199.39;;;6.92;100.00
55755;BME280;41674;52.290;-1.474;2023-02-03T05:43:59;102196.00;;;6.83;100.00
55755;BME280;41674;52.290;-1.474;2023-02-03T05:46:28;102201.09;;;7.23;100.00
55755;BME280;41674;52.290;-1.474;2023-02-03T05:48:58;102203.43;;;6.96;100.00
55755;BME280;41674;52.290;-1.474;2023-02-03T05:51:28;102207.56;;;7.17;100.00
55755;BME280;41674;52.290;-1.474;2023-02-03T05:53:57;102201.08;;;7.18;100.00
55755;BME280;41674;52.290;-1.474;2023-02-03T05:56:27;102194.27;;;6.92;100.00
55755;BME280;41674;52.290;-1.474;2023-02-03T05:58:57;102190.21;;;6.55;100.00
55755;BME280;41674;52.290;-1.474;2023-02-03T06:01:26;102194.80;;;6.83;100.00
55755;BME280;41674;52.290;-1.474;2023-02-03T06:03:56;102197.18;;;7.06;100.00
55755;BME280;41674;52.290;-1.474;2023-02-03T06:06:26;102203.51;;;6.80;100.00
55755;BME280;41674;52.290;-1.474;2023-02-03T06:08:55;102202.39;;;7.07;100.00
55755;BME280;41674;52.290;-1.474;2023-02-03T06:11:25;102211.59;;;7.50;100.00
55755;BME280;41674;52.290;-1.474;2023-02-03T06:13:55;102218.65;;;7.23;100.00
55755;BME280;41674;52.290;-1.474;2023-02-03T06:16:24;102228.78;;;7.06;100.00
55755;BME280;41674;52.290;-1.474;2023-02-03T06:18:55;102242.20;;;7.11;100.00
55755;BME280;41674;52.290;-1.474;2023-02-03T06:21:23;102245.30;;;7.31;100.00
55755;BME280;41674;52.290;-1.474;2023-02-03T06:23:53;102245.88;;;7.45;100.00
55755;BME280;41674;52.290;-1.474;2023-02-03T06:26:22;102247.84;;;7.31;100.00
55755;BME280;41674;52.290;-1.474;2023-02-03T06:28:52;102249.59;;;7.73;99.52
55755;BME280;41674;52.290;-1.474;2023-02-03T06:31:22;102255.49;;;7.26;100.00
55755;BME280;41674;52.290;-1.474;2023-02-03T06:33:51;102260.54;;;7.61;100.00
55755;BME280;41674;52.290;-1.474;2023-02-03T06:36:21;102263.04;;;7.62;100.00
55755;BME280;41674;52.290;-1.474;2023-02-03T06:38:50;102270.65;;;7.72;99.90
55755;BME280;41674;52.290;-1.474;2023-02-03T06:41:20;102269.33;;;8.38;98.03
55755;BME280;41674;52.290;-1.474;2023-02-03T06:43:50;102268.55;;;8.13;97.07
55755;BME280;41674;52.290;-1.474;2023-02-03T06:46:19;102265.15;;;8.72;93.66
55755;BME280;41674;52.290;-1.474;2023-02-03T06:48:49;102268.40;;;8.33;97.58
55755;BME280;41674;52.290;-1.474;2023-02-03T06:51:19;102270.30;;;7.97;99.41
55755;BME280;41674;52.290;-1.474;2023-02-03T06:53:48;102271.45;;;7.75;100.00
55755;BME280;41674;52.290;-1.474;2023-02-03T06:56:18;102269.07;;;7.28;100.00
55755;BME280;41674;52.290;-1.474;2023-02-03T06:58:47;102273.51;;;7.53;100.00
55755;BME280;41674;52.290;-1.474;2023-02-03T07:01:17;102273.43;;;7.14;100.00
55755;BME280;41674;52.290;-1.474;2023-02-03T07:03:47;102269.33;;;6.97;100.00
55755;BME280;41674;52.290;-1.474;2023-02-03T07:06:16;102275.26;;;7.41;100.00
55755;BME280;41674;52.290;-1.474;2023-02-03T07:08:46;102276.41;;;7.13;100.00
55755;BME280;41674;52.290;-1.474;2023-02-03T07:11:16;102282.65;;;7.16;100.00
55755;BME280;41674;52.290;-1.474;2023-02-03T07:13:45;102285.98;;;7.43;100.00
55755;BME280;41674;52.290;-1.474;2023-02-03T07:16:15;102287.84;;;6.97;100.00
55755;BME280;41674;52.290;-1.474;2023-02-03T07:18:45;102285.75;;;6.57;100.00
55755;BME280;41674;52.290;-1.474;2023-02-03T07:21:15;102285.97;;;6.72;100.00
55755;BME280;41674;52.290;-1.474;2023-02-03T07:23:46;102289.28;;;6.58;100.00
55755;BME280;41674;52.290;-1.474;2023-02-03T07:26:14;102291.12;;;6.85;100.00
55755;BME280;41674;52.290;-1.474;2023-02-03T07:28:43;102291.71;;;6.97;100.00
55755;BME280;41674;52.290;-1.474;2023-02-03T07:31:13;102292.58;;;7.15;100.00
55755;BME280;41674;52.290;-1.474;2023-02-03T07:33:42;102291.39;;;7.28;100.00
55755;BME280;41674;52.290;-1.474;2023-02-03T07:36:12;102288.59;;;7.00;100.00
55755;BME280;41674;52.290;-1.474;2023-02-03T07:38:41;102282.46;;;6.88;100.00
55755;BME280;41674;52.290;-1.474;2023-02-03T07:41:11;102274.52;;;6.81;100.00
55755;BME280;41674;52.290;-1.474;2023-02-03T07:43:41;102277.68;;;6.88;100.00
55755;BME280;41674;52.290;-1.474;2023-02-03T07:46:10;102277.57;;;6.67;100.00
55755;BME280;41674;52.290;-1.474;2023-02-03T07:48:40;102272.55;;;6.50;100.00
55755;BME280;41674;52.290;-1.474;2023-02-03T07:51:10;102276.53;;;6.94;100.00
55755;BME280;41674;52.290;-1.474;2023-02-03T07:53:39;102270.39;;;6.44;100.00
55755;BME280;41674;52.290;-1.474;2023-02-03T07:56:09;102270.29;;;7.07;100.00
55755;BME280;41674;52.290;-1.474;2023-02-03T07:58:39;102272.56;;;6.90;100.00
55755;BME280;41674;52.290;-1.474;2023-02-03T08:01:11;102278.11;;;7.08;100.00
55755;BME280;41674;52.290;-1.474;2023-02-03T08:03:38;102281.26;;;6.99;100.00
55755;BME280;41674;52.290;-1.474;2023-02-03T08:06:08;102281.45;;;7.44;100.00
55755;BME280;41674;52.290;-1.474;2023-02-03T08:08:37;102284.74;;;7.66;97.34
55755;BME280;41674;52.290;-1.474;2023-02-03T08:11:07;102290.96;;;6.73;100.00
55755;BME280;41674;52.290;-1.474;2023-02-03T08:13:37;102294.94;;;8.00;95.38
55755;BME280;41674;52.290;-1.474;2023-02-03T08:16:06;102304.27;;;8.08;96.49
55755;BME280;41674;52.290;-1.474;2023-02-03T08:18:36;102310.50;;;8.04;96.49
55755;BME280;41674;52.290;-1.474;2023-02-03T08:21:05;102318.51;;;7.50;99.77
55755;BME280;41674;52.290;-1.474;2023-02-03T08:23:35;102321.96;;;7.44;99.69
55755;BME280;41674;52.290;-1.474;2023-02-03T08:26:05;102323.00;;;7.33;100.00
55755;BME280;41674;52.290;-1.474;2023-02-03T08:28:34;102319.64;;;7.09;100.00
55755;BME280;41674;52.290;-1.474;2023-02-03T08:31:09;102320.93;;;6.84;100.00
55755;BME280;41674;52.290;-1.474;2023-02-03T08:33:33;102327.58;;;6.48;100.00
55755;BME280;41674;52.290;-1.474;2023-02-03T08:36:03;102330.80;;;6.36;100.00
55755;BME280;41674;52.290;-1.474;2023-02-03T08:38:33;102328.06;;;6.78;100.00
55755;BME280;41674;52.290;-1.474;2023-02-03T08:41:08;102339.27;;;6.52;100.00
55755;BME280;41674;52.290;-1.474;2023-02-03T08:43:32;102336.75;;;6.73;100.00
55755;BME280;41674;52.290;-1.474;2023-02-03T08:46:02;102341.01;;;6.67;100.00
55755;BME280;41674;52.290;-1.474;2023-02-03T08:48:31;102336.06;;;7.08;100.00
55755;BME280;41674;52.290;-1.474;2023-02-03T08:51:01;102333.69;;;7.09;100.00
55755;BME280;41674;52.290;-1.474;2023-02-03T08:53:30;102337.11;;;6.71;100.00
55755;BME280;41674;52.290;-1.474;2023-02-03T08:56:04;102334.05;;;7.04;100.00
55755;BME280;41674;52.290;-1.474;2023-02-03T08:58:30;102335.34;;;6.78;100.00
55755;BME280;41674;52.290;-1.474;2023-02-03T09:01:05;102331.60;;;6.43;100.00
55755;BME280;41674;52.290;-1.474;2023-02-03T09:03:29;102335.55;;;6.14;100.00
55755;BME280;41674;52.290;-1.474;2023-02-03T09:05:59;102334.73;;;6.35;100.00
55755;BME280;41674;52.290;-1.474;2023-02-03T09:08:28;102335.88;;;6.45;100.00
55755;BME280;41674;52.290;-1.474;2023-02-03T09:10:58;102329.98;;;6.66;100.00
55755;BME280;41674;52.290;-1.474;2023-02-03T09:13:27;102330.25;;;6.43;100.00
55755;BME280;41674;52.290;-1.474;2023-02-03T09:15:59;102325.36;;;6.99;100.00
55755;BME280;41674;52.290;-1.474;2023-02-03T09:18:27;102332.25;;;7.05;100.00
55755;BME280;41674;52.290;-1.474;2023-02-03T09:21:00;102341.24;;;7.57;100.00
55755;BME280;41674;52.290;-1.474;2023-02-03T09:23:26;102345.57;;;6.91;100.00
55755;BME280;41674;52.290;-1.474;2023-02-03T09:26:00;102353.83;;;6.69;100.00
55755;BME280;41674;52.290;-1.474;2023-02-03T09:28:25;102359.01;;;7.14;100.00
55755;BME280;41674;52.290;-1.474;2023-02-03T09:30:59;102360.35;;;6.81;100.00
55755;BME280;41674;52.290;-1.474;2023-02-03T09:33:24;102360.76;;;6.84;100.00
55755;BME280;41674;52.290;-1.474;2023-02-03T09:35:55;102359.00;;;7.20;100.00
55755;BME280;41674;52.290;-1.474;2023-02-03T09:38:25;102357.26;;;7.27;100.00
55755;BME280;41674;52.290;-1.474;2023-02-03T09:40:55;102362.22;;;7.27;100.00
55755;BME280;41674;52.290;-1.474;2023-02-03T09:43:30;102358.40;;;7.38;100.00
55755;BME280;41674;52.290;-1.474;2023-02-03T09:45:53;102362.92;;;7.35;100.00
55755;BME280;41674;52.290;-1.474;2023-02-03T09:48:27;102366.80;;;7.50;100.00
55755;BME280;41674;52.290;-1.474;2023-02-03T09:50:52;102380.25;;;7.42;100.00
55755;BME280;41674;52.290;-1.474;2023-02-03T09:53:27;102383.63;;;7.81;100.00
55755;BME280;41674;52.290;-1.474;2023-02-03T09:55:51;102389.69;;;7.79;100.00
55755;BME280;41674;52.290;-1.474;2023-02-03T09:58:21;102399.18;;;7.49;100.00
55755;BME280;41674;52.290;-1.474;2023-02-03T10:00:53;102412.96;;;7.93;100.00
55755;BME280;41674;52.290;-1.474;2023-02-03T10:03:27;102422.59;;;8.31;98.52
55755;BME280;41674;52.290;-1.474;2023-02-03T10:06:04;102430.81;;;8.14;99.20
55755;BME280;41674;52.290;-1.474;2023-02-03T10:08:27;102433.75;;;7.97;100.00
55755;BME280;41674;52.290;-1.474;2023-02-03T10:10:55;102445.59;;;8.67;96.38
55755;BME280;41674;52.290;-1.474;2023-02-03T10:13:25;102444.68;;;9.77;91.83
55755;BME280;41674;52.290;-1.474;2023-02-03T10:16:00;102450.67;;;9.53;90.70
55755;BME280;41674;52.290;-1.474;2023-02-03T10:18:21;102466.49;;;8.73;93.94
55755;BME280;41674;52.290;-1.474;2023-02-03T10:20:48;102465.97;;;9.03;94.37
55755;BME280;41674;52.290;-1.474;2023-02-03T10:23:19;102467.33;;;7.88;98.24
55755;BME280;41674;52.290;-1.474;2023-02-03T10:25:50;102464.55;;;8.67;96.82
55755;BME280;41674;52.290;-1.474;2023-02-03T10:28:18;102465.75;;;8.76;95.34
55755;BME280;41674;52.290;-1.474;2023-02-03T10:30:49;102466.08;;;8.06;97.61
55755;BME280;41674;52.290;-1.474;2023-02-03T10:33:17;102467.65;;;8.93;92.92
55755;BME280;41674;52.290;-1.474;2023-02-03T10:35:49;102475.74;;;9.05;93.07
55755;BME280;41674;52.290;-1.474;2023-02-03T10:38:22;102482.50;;;8.08;97.67
55755;BME280;41674;52.290;-1.474;2023-02-03T10:40:44;102494.26;;;8.41;97.59
55755;BME280;41674;52.290;-1.474;2023-02-03T10:43:14;102497.65;;;8.56;95.03
55755;BME280;41674;52.290;-1.474;2023-02-03T10:45:43;102495.35;;;9.45;91.92
55755;BME280;41674;52.290;-1.474;2023-02-03T10:48:16;102491.04;;;9.34;91.00
55755;BME280;41674;52.290;-1.474;2023-02-03T10:50:47;102495.36;;;8.71;94.27
55755;BME280;41674;52.290;-1.474;2023-02-03T10:53:21;102491.06;;;8.30;97.46
55755;BME280;41674;52.290;-1.474;2023-02-03T10:55:42;102495.64;;;7.95;98.52
55755;BME280;41674;52.290;-1.474;2023-02-03T10:58:15;102495.17;;;8.16;100.00
55755;BME280;41674;52.290;-1.474;2023-02-03T11:00:41;102496.12;;;8.72;98.14
55755;BME280;41674;52.290;-1.474;2023-02-03T11:03:20;102501.75;;;8.89;97.09
55755;BME280;41674;52.290;-1.474;2023-02-03T11:05:40;102503.24;;;9.33;93.81
55755;BME280;41674;52.290;-1.474;2023-02-03T11:08:14;102509.85;;;8.05;99.53
55755;BME280;41674;52.290;-1.474;2023-02-03T11:10:40;102512.73;;;8.60;97.64
55755;BME280;41674;52.290;-1.474;2023-02-03T11:13:15;102513.66;;;8.78;95.77
55755;BME280;41674;52.290;-1.474;2023-02-03T11:15:43;102519.40;;;9.38;95.00
55755;BME280;41674;52.290;-1.474;2023-02-03T11:18:24;102515.75;;;8.41;99.89
55755;BME280;41674;52.290;-1.474;2023-02-03T11:20:38;102515.15;;;8.12;100.00
55755;BME280;41674;52.290;-1.474;2023-02-03T11:23:10;102512.79;;;8.51;100.00
55755;BME280;41674;52.290;-1.474;2023-02-03T11:25:37;102511.50;;;8.64;100.00
55755;BME280;41674;52.290;-1.474;2023-02-03T11:28:09;102509.79;;;8.77;100.00
55755;BME280;41674;52.290;-1.474;2023-02-03T11:30:37;102514.95;;;9.07;97.60
55755;BME280;41674;52.290;-1.474;2023-02-03T11:33:16;102521.20;;;8.96;97.45
55755;BME280;41674;52.290;-1.474;2023-02-03T11:35:35;102528.56;;;9.45;97.69
55755;BME280;41674;52.290;-1.474;2023-02-03T11:40:35;102533.68;;;8.64;99.09
55755;BME280;41674;52.290;-1.474;2023-02-03T11:43:13;102534.58;;;8.70;97.74
55755;BME280;41674;52.290;-1.474;2023-02-03T11:45:37;102539.62;;;8.96;99.02
55755;BME280;41674;52.290;-1.474;2023-02-03T11:50:38;102526.03;;;9.02;97.67
55755;BME280;41674;52.290;-1.474;2023-02-03T11:53:11;102531.77;;;9.26;96.38
55755;BME280;41674;52.290;-1.474;2023-02-03T11:55:40;102529.64;;;9.44;94.82
55755;BME280;41674;52.290;-1.474;2023-02-03T11:58:18;102525.43;;;10.58;93.37
55755;BME280;41674;52.290;-1.474;2023-02-03T12:00:37;102529.57;;;9.52;95.27
55755;BME280;41674;52.290;-1.474;2023-02-03T12:03:19;102529.64;;;9.91;94.81
55755;BME280;41674;52.290;-1.474;2023-02-03T12:05:39;102538.13;;;9.96;94.08
55755;BME280;41674;52.290;-1.474;2023-02-03T12:08:09;102538.70;;;10.01;93.75
55755;BME280;41674;52.290;-1.474;2023-02-03T12:10:40;102539.18;;;9.57;95.64
55755;BME280;41674;52.290;-1.474;2023-02-03T12:13:09;102536.92;;;9.61;95.16
55755;BME280;41674;52.290;-1.474;2023-02-03T12:15:42;102534.33;;;8.95;98.23
55755;BME280;41674;52.290;-1.474;2023-02-03T12:18:14;102531.18;;;10.29;92.81
55755;BME280;41674;52.290;-1.474;2023-02-03T12:20:38;102536.63;;;9.12;96.15
55755;BME280;41674;52.290;-1.474;2023-02-03T12:23:04;102531.68;;;8.64;100.00
55755;BME280;41674;52.290;-1.474;2023-02-03T12:25:35;102528.38;;;8.89;100.00
55755;BME280;41674;52.290;-1.474;2023-02-03T12:28:07;102526.39;;;8.70;100.00
55755;BME280;41674;52.290;-1.474;2023-02-03T12:30:29;102526.66;;;8.91;100.00
55755;BME280;41674;52.290;-1.474;2023-02-03T12:32:58;102533.37;;;8.74;100.00
55755;BME280;41674;52.290;-1.474;2023-02-03T12:35:29;102537.71;;;9.15;99.74
55755;BME280;41674;52.290;-1.474;2023-02-03T12:38:00;102537.12;;;9.18;99.32
55755;BME280;41674;52.290;-1.474;2023-02-03T12:40:33;102536.86;;;10.29;93.57
55755;BME280;41674;52.290;-1.474;2023-02-03T12:42:58;102542.26;;;9.73;95.34
55755;BME280;41674;52.290;-1.474;2023-02-03T12:45:28;102540.89;;;9.01;97.75
55755;BME280;41674;52.290;-1.474;2023-02-03T12:47:56;102545.01;;;9.13;96.94
55755;BME280;41674;52.290;-1.474;2023-02-03T12:50:30;102548.86;;;9.47;95.47
55755;BME280;41674;52.290;-1.474;2023-02-03T12:52:57;102548.44;;;8.89;98.07
55755;BME280;41674;52.290;-1.474;2023-02-03T12:55:29;102548.32;;;9.68;95.78
55755;BME280;41674;52.290;-1.474;2023-02-03T12:57:56;102553.80;;;9.60;95.31
55755;BME280;41674;52.290;-1.474;2023-02-03T13:00:32;102550.14;;;9.95;93.41
55755;BME280;41674;52.290;-1.474;2023-02-03T13:03:01;102546.79;;;9.99;92.36
55755;BME280;41674;52.290;-1.474;2023-02-03T13:05:25;102554.78;;;9.81;94.51
55755;BME280;41674;52.290;-1.474;2023-02-03T13:07:55;102555.67;;;10.01;92.90